Time;durP1;ratioP1;P1;durP2;ratioP2;P2;SDS_P1;SDS_P2;PMS_P1;PMS_P2;Temp;Humidity;BMP_temperature;BMP_pressure;BME280_temperature;BME280_humidity;BME280_pressure;Samples;Min_cycle;Max_cycle;Signal;HPM_P1;HPM_P2
2022/05/11 00:00:09;;;;;;;;;;;;;;;18.67;65.25;100241.69;5010282;28;1847;-89
2022/05/11 00:02:34;;;;;;;;;;;;;;;18.59;66.83;100236.22;5019425;28;1186;-90
2022/05/11 00:04:59;;;;;;;;;;;;;;;18.42;68.11;100248.25;5008790;28;1499;-90
2022/05/11 00:07:25;;;;;;;;;;;;;;;18.31;68.87;100245.06;5018022;28;1426;-90
2022/05/11 00:09:50;;;;;;;;;;;;;;;18.19;69.43;100247.78;5022031;28;1874;-89
2022/05/11 00:12:15;;;;;;;;;;;;;;;18.16;68.44;100248.44;5007956;28;1384;-90
2022/05/11 00:14:40;;;;;;;;;;;;;;;18.13;68.26;100251.88;4997501;28;1520;-90
2022/05/11 00:17:05;;;;;;;;;;;;;;;18.21;68.19;100253.78;5015936;28;1371;-90
2022/05/11 00:19:30;;;;;;;;;;;;;;;18.20;68.94;100252.19;5032252;28;1221;-90
2022/05/11 00:21:56;;;;;;;;;;;;;;;18.23;69.21;100257.03;5008449;28;1794;-90
2022/05/11 00:24:21;;;;;;;;;;;;;;;18.28;68.27;100251.31;5009829;28;1107;-91
2022/05/11 00:26:46;;;;;;;;;;;;;;;18.05;69.74;100253.56;5023959;28;1658;-89
2022/05/11 00:29:11;;;;;;;;;;;;;;;18.09;69.91;100248.19;5022566;28;1536;-90
2022/05/11 00:31:36;;;;;;;;;;;;;;;17.81;70.87;100244.28;5030713;28;1902;-91
2022/05/11 00:34:01;;;;;;;;;;;;;;;17.89;70.05;100241.47;5017214;28;1263;-90
2022/05/11 00:36:27;;;;;;;;;;;;;;;18.01;69.71;100246.28;5031765;28;1407;-89
2022/05/11 00:38:52;;;;;;;;;;;;;;;18.03;68.36;100239.22;5035587;28;1365;-90
2022/05/11 00:41:17;;;;;;;;;;;;;;;17.99;68.87;100245.81;5013831;28;1626;-89
2022/05/11 00:43:52;;;;;;;;;;;;;;;18.00;69.36;100239.94;5031749;28;1424;-90
2022/05/11 00:46:21;;;;;;;;;;;;;;;17.93;69.57;100233.31;5012186;28;1624;-90
2022/05/11 00:51:44;;;;;;;;;;;;;;;17.89;69.52;100232.34;5032627;28;1886;-90
2022/05/11 00:54:10;;;;;;;;;;;;;;;17.89;70.02;100230.38;5030829;28;1392;-90
2022/05/11 00:56:39;;;;;;;;;;;;;;;17.97;69.54;100223.16;5008359;28;1200;-90
2022/05/11 00:59:09;;;;;;;;;;;;;;;17.87;69.72;100223.56;5005213;28;1429;-90
2022/05/11 01:01:35;;;;;;;;;;;;;;;17.91;70.16;100227.28;5023048;28;1444;-90
2022/05/11 01:04:02;;;;;;;;;;;;;;;17.95;70.19;100222.72;5007930;28;1800;-90
2022/05/11 01:06:30;;;;;;;;;;;;;;;17.90;69.62;100226.47;5012309;28;1316;-90
2022/05/11 01:08:55;;;;;;;;;;;;;;;17.86;69.32;100227.50;5000039;28;1259;-91
2022/05/11 01:11:20;;;;;;;;;;;;;;;17.70;70.71;100227.25;4997749;28;1898;-91
2022/05/11 01:13:46;;;;;;;;;;;;;;;17.44;72.09;100230.13;4997642;28;1329;-91
2022/05/11 01:16:11;;;;;;;;;;;;;;;17.59;71.50;100228.75;4997442;28;1496;-91
2022/05/11 01:18:38;;;;;;;;;;;;;;;17.64;71.50;100217.50;5012033;28;1766;-92
2022/05/11 01:21:04;;;;;;;;;;;;;;;17.65;71.38;100211.66;5016992;28;1327;-92
2022/05/11 01:23:38;;;;;;;;;;;;;;;17.53;71.84;100224.53;5000688;28;1651;-91
2022/05/11 01:26:04;;;;;;;;;;;;;;;17.60;71.77;100219.31;4998149;28;1174;-91
2022/05/11 01:28:29;;;;;;;;;;;;;;;17.59;70.69;100217.69;4997879;28;1244;-91
2022/05/11 01:31:03;;;;;;;;;;;;;;;17.57;71.50;100220.78;4997904;28;1906;-91
2022/05/11 01:33:29;;;;;;;;;;;;;;;17.55;72.17;100219.47;4997344;28;1206;-91
2022/05/11 01:36:12;;;;;;;;;;;;;;;17.55;71.24;100220.28;4997477;28;1490;-91
2022/05/11 01:38:51;;;;;;;;;;;;;;;17.28;72.64;100209.69;5013748;28;1471;-91
2022/05/11 01:41:20;;;;;;;;;;;;;;;17.33;72.49;100204.78;5004434;28;1240;-92
2022/05/11 01:43:45;;;;;;;;;;;;;;;17.34;73.21;100208.38;5006332;28;1323;-90
2022/05/11 01:46:10;;;;;;;;;;;;;;;17.40;72.99;100207.84;4998080;28;1328;-90
2022/05/11 01:48:36;;;;;;;;;;;;;;;17.45;72.38;100200.50;4997743;28;1360;-90
2022/05/11 01:51:01;;;;;;;;;;;;;;;17.46;71.90;100191.03;4997707;28;1961;-90
2022/05/11 01:53:27;;;;;;;;;;;;;;;17.29;73.45;100183.66;4997576;28;1217;-90
2022/05/11 01:55:53;;;;;;;;;;;;;;;17.27;73.42;100183.97;4998196;28;1273;-90
2022/05/11 01:58:19;;;;;;;;;;;;;;;17.26;74.45;100187.91;4997608;28;1264;-90
2022/05/11 02:00:45;;;;;;;;;;;;;;;17.30;74.15;100182.50;4997437;28;1548;-90
2022/05/11 02:03:10;;;;;;;;;;;;;;;17.37;73.07;100180.84;4997713;28;1212;-90
2022/05/11 02:08:19;;;;;;;;;;;;;;;17.26;73.48;100181.56;5015723;28;1283;-90
2022/05/11 02:10:45;;;;;;;;;;;;;;;17.14;75.04;100168.44;5000270;28;1898;-90
2022/05/11 02:13:10;;;;;;;;;;;;;;;17.05;75.64;100164.06;5010562;28;1155;-89
2022/05/11 02:15:36;;;;;;;;;;;;;;;17.27;74.33;100163.78;4997896;28;1366;-90
2022/05/11 02:18:01;;;;;;;;;;;;;;;17.25;74.17;100168.88;4997558;28;1342;-90
2022/05/11 02:20:27;;;;;;;;;;;;;;;17.19;74.54;100159.94;4997542;28;1271;-90
2022/05/11 02:22:52;;;;;;;;;;;;;;;17.11;75.35;100157.22;4997644;28;1224;-90
2022/05/11 02:25:17;;;;;;;;;;;;;;;17.12;74.99;100159.66;4997577;28;1213;-90
2022/05/11 02:27:43;;;;;;;;;;;;;;;17.16;74.53;100157.03;4997694;28;1276;-90
2022/05/11 02:30:11;;;;;;;;;;;;;;;16.50;77.54;100159.34;4997474;28;1948;-90
2022/05/11 02:32:36;;;;;;;;;;;;;;;16.76;76.68;100162.88;4997252;28;1161;-90
2022/05/11 02:35:13;;;;;;;;;;;;;;;16.89;76.10;100159.09;4997112;28;1319;-90
2022/05/11 02:37:43;;;;;;;;;;;;;;;17.00;76.43;100151.25;4996870;28;1334;-90
2022/05/11 09:20:46;;;;;;;;;;;;;;;21.16;53.02;99882.97;5013810;28;1298;-92
2022/05/11 09:23:12;;;;;;;;;;;;;;;21.27;51.48;99880.41;4997902;28;1462;-92
2022/05/11 09:25:51;;;;;;;;;;;;;;;21.47;50.74;99885.59;4998076;28;1344;-91
2022/05/11 09:28:31;;;;;;;;;;;;;;;21.49;50.33;99882.44;5013945;28;1297;-92
2022/05/11 09:30:56;;;;;;;;;;;;;;;21.60;48.70;99875.13;4997501;28;1966;-91
2022/05/11 09:33:26;;;;;;;;;;;;;;;21.60;47.76;99877.91;4998681;28;1347;-91
2022/05/11 09:35:53;;;;;;;;;;;;;;;21.66;47.80;99856.91;4998616;28;1400;-92
2022/05/11 09:38:19;;;;;;;;;;;;;;;21.78;47.48;99859.50;4997187;28;1287;-91
2022/05/11 09:40:58;;;;;;;;;;;;;;;22.06;46.83;99856.44;4997681;28;1294;-90
2022/05/11 09:43:34;;;;;;;;;;;;;;;22.01;46.90;99862.34;4997174;28;1172;-91
2022/05/11 09:46:00;;;;;;;;;;;;;;;21.86;48.84;99852.09;4991175;28;1311;-91
2022/05/11 09:48:30;;;;;;;;;;;;;;;21.90;46.79;99872.44;4996657;28;1192;-91
2022/05/11 09:50:57;;;;;;;;;;;;;;;21.90;48.42;99861.31;4978446;28;1894;-92
2022/05/11 09:53:22;;;;;;;;;;;;;;;21.98;46.71;99860.28;4981678;28;1285;-91
2022/05/11 09:55:48;;;;;;;;;;;;;;;22.06;48.72;99853.66;5017590;28;1371;-92
2022/05/11 09:58:24;;;;;;;;;;;;;;;22.02;45.53;99863.94;5011694;28;1233;-91
2022/05/11 10:00:50;;;;;;;;;;;;;;;22.06;45.01;99855.63;4996373;28;1196;-92
2022/05/11 10:03:22;;;;;;;;;;;;;;;21.96;45.86;99859.81;5007416;28;1408;-91
2022/05/11 10:05:49;;;;;;;;;;;;;;;22.09;46.54;99858.47;5013515;28;1379;-91
2022/05/11 10:08:29;;;;;;;;;;;;;;;22.18;43.77;99855.44;5006653;28;1536;-92
2022/05/11 10:10:59;;;;;;;;;;;;;;;22.11;46.82;99874.84;4998388;28;1899;-92
2022/05/11 10:13:29;;;;;;;;;;;;;;;21.94;43.91;99853.81;4977315;28;1077;-93
2022/05/11 10:21:50;;;;;;;;;;;;;;;22.51;42.38;99840.81;5015303;28;1296;-91
2022/05/11 10:22:07;;;;;;;;;;;;;;;22.62;43.18;99876.03;5015259;28;889;-92
2022/05/11 10:24:37;;;;;;;;;;;;;;;22.48;43.20;99853.50;5014195;28;1199;-91
2022/05/11 10:27:05;;;;;;;;;;;;;;;22.49;43.07;99837.56;4996616;28;1185;-91
2022/05/11 10:29:47;;;;;;;;;;;;;;;22.60;47.12;99841.31;5013030;28;1267;-92
2022/05/11 10:32:27;;;;;;;;;;;;;;;22.63;46.54;99829.41;4996589;28;1894;-91
2022/05/11 10:35:01;;;;;;;;;;;;;;;22.76;45.13;99824.44;4997001;28;1213;-92
2022/05/11 10:37:45;;;;;;;;;;;;;;;22.73;45.81;99825.94;5013745;28;1273;-92
2022/05/11 10:40:17;;;;;;;;;;;;;;;22.69;48.39;99821.53;4997230;28;1277;-91
2022/05/11 10:42:50;;;;;;;;;;;;;;;22.70;45.21;99831.50;5015587;28;877;-91
2022/05/11 10:45:26;;;;;;;;;;;;;;;22.74;44.65;99827.59;4997864;28;1228;-92
2022/05/11 10:48:14;;;;;;;;;;;;;;;22.86;45.75;99826.56;5016270;28;826;-92
2022/05/11 10:50:55;;;;;;;;;;;;;;;22.94;46.80;99817.91;5015044;28;1961;-91
2022/05/11 10:53:27;;;;;;;;;;;;;;;22.96;45.44;99812.75;4996273;28;1291;-91
2022/05/11 10:56:01;;;;;;;;;;;;;;;23.01;44.62;99825.56;4995541;28;1235;-92
2022/05/11 10:58:29;;;;;;;;;;;;;;;23.17;45.47;99823.34;4996170;28;1238;-92
2022/05/11 11:01:08;;;;;;;;;;;;;;;23.08;44.80;99822.84;5001043;28;1536;-91
2022/05/11 11:03:42;;;;;;;;;;;;;;;23.16;44.14;99823.72;5016397;28;1331;-92
2022/05/11 11:09:15;;;;;;;;;;;;;;;23.24;43.45;99817.84;5034736;28;1327;-90
2022/05/11 11:11:59;;;;;;;;;;;;;;;23.11;43.41;99822.09;5016018;28;1949;-92
2022/05/11 11:14:27;;;;;;;;;;;;;;;23.10;43.32;99816.88;5015828;28;1035;-90
2022/05/11 11:16:53;;;;;;;;;;;;;;;23.19;42.32;99809.00;5002294;28;1210;-90
2022/05/11 11:19:18;;;;;;;;;;;;;;;23.33;42.63;99809.97;4999480;28;1213;-91
2022/05/11 11:21:44;;;;;;;;;;;;;;;23.31;40.76;99806.72;4999674;28;1177;-91
2022/05/11 11:24:22;;;;;;;;;;;;;;;23.38;42.09;99803.25;5000093;28;1422;-92
2022/05/11 11:26:49;;;;;;;;;;;;;;;23.48;42.72;99799.72;5002158;28;1435;-90
2022/05/11 11:29:15;;;;;;;;;;;;;;;23.52;44.15;99795.03;4999594;28;1299;-91
2022/05/11 11:31:56;;;;;;;;;;;;;;;23.53;43.01;99793.03;4999955;28;1961;-92
2022/05/11 11:34:23;;;;;;;;;;;;;;;23.59;41.17;99789.50;4999934;28;1325;-91
2022/05/11 11:36:48;;;;;;;;;;;;;;;23.59;42.16;99780.31;5030011;28;1500;-91
2022/05/11 11:39:33;;;;;;;;;;;;;;;23.54;43.21;99781.47;5020599;28;1259;-90
2022/05/11 11:42:00;;;;;;;;;;;;;;;23.63;41.45;99786.75;5000632;28;1754;-91
2022/05/11 11:47:30;;;;;;;;;;;;;;;23.79;39.71;99787.28;5012793;28;1404;-91
2022/05/11 11:50:02;;;;;;;;;;;;;;;23.84;40.26;99769.34;5001196;28;1284;-91
2022/05/11 11:53:02;;;;;;;;;;;;;;;;;;;;;
2022/05/11 11:55:30;;;;;;;;;;;;;;;24.00;40.25;99779.03;5018256;28;1252;-91
2022/05/11 11:58:10;;;;;;;;;;;;;;;23.93;39.03;99756.63;5000515;28;1581;-90
2022/05/11 12:04:06;;;;;;;;;;;;;;;24.04;39.01;99776.28;4977090;28;1022;-91
2022/05/11 12:15:42;;;;;;;;;;;;;;;24.25;40.28;99754.06;5002053;28;1448;-92
2022/05/11 12:18:22;;;;;;;;;;;;;;;24.28;39.46;99749.69;5001137;28;1218;-92
2022/05/11 12:20:47;;;;;;;;;;;;;;;24.33;40.35;99749.34;5036307;28;1315;-91
2022/05/11 12:23:18;;;;;;;;;;;;;;;24.34;39.05;99751.72;5017603;28;1333;-91
2022/05/11 12:26:36;;;;;;;;;;;;;;;24.50;37.36;99755.00;5013678;28;1290;-91
2022/05/11 13:49:45;;;;;;;;;;;;;;;36.61;22.01;99663.38;5025764;28;1366;-90
2022/05/11 13:52:39;;;;;;;;;;;;;;;;;;;;;
2022/05/11 13:55:09;;;;;;;;;;;;;;;34.00;26.15;99677.28;5015651;28;1382;-90
2022/05/11 13:57:58;;;;;;;;;;;;;;;33.65;26.18;99672.84;4998095;28;1390;-90
2022/05/11 14:18:00;;;;;;;;;;;;;;;29.94;31.35;99637.75;5013907;28;1376;-92
2022/05/11 14:20:27;;;;;;;;;;;;;;;31.22;31.43;99639.84;4999863;28;1775;-91
2022/05/11 14:22:52;;;;;;;;;;;;;;;32.84;27.95;99633.72;5015011;28;1977;-91
2022/05/11 14:25:18;;;;;;;;;;;;;;;32.37;27.43;99628.66;4997825;28;1338;-90
2022/05/11 14:27:43;;;;;;;;;;;;;;;31.70;28.40;99622.88;5016704;28;1008;-90
2022/05/11 14:30:10;;;;;;;;;;;;;;;30.76;29.30;99638.88;4998042;28;1354;-89
2022/05/11 14:32:37;;;;;;;;;;;;;;;29.31;32.34;99631.19;4998681;28;1489;-90
2022/05/11 14:35:04;;;;;;;;;;;;;;;30.51;31.31;99630.16;4997688;28;1697;-90
2022/05/11 14:37:30;;;;;;;;;;;;;;;31.09;30.01;99634.91;4997245;28;1579;-90
2022/05/11 14:39:56;;;;;;;;;;;;;;;30.24;30.69;99627.50;4998727;28;1273;-90
2022/05/11 14:42:22;;;;;;;;;;;;;;;30.05;31.11;99618.59;4994609;28;1961;-88
2022/05/11 14:44:47;;;;;;;;;;;;;;;30.77;29.25;99615.84;4997906;28;1553;-90
2022/05/11 14:47:13;;;;;;;;;;;;;;;31.40;28.89;99614.72;4997475;28;1366;-90
2022/05/11 14:49:41;;;;;;;;;;;;;;;29.86;32.52;99610.09;4999341;28;1398;-91
2022/05/11 14:52:07;;;;;;;;;;;;;;;30.00;31.79;99621.13;5002635;28;1521;-91
2022/05/11 14:54:32;;;;;;;;;;;;;;;31.42;30.39;99600.94;5005014;28;1686;-90
2022/05/11 15:02:26;;;;;;;;;;;;;;;31.24;29.71;99597.78;5019581;28;1910;-89
2022/05/11 15:04:52;;;;;;;;;;;;;;;31.26;29.49;99589.66;5018900;28;841;-89
2022/05/11 15:07:18;;;;;;;;;;;;;;;31.02;29.97;99605.97;5001704;28;1241;-91
2022/05/11 15:09:43;;;;;;;;;;;;;;;31.14;29.99;99588.31;5002007;28;1269;-92
2022/05/11 15:14:53;;;;;;;;;;;;;;;30.21;31.97;99591.66;5019519;28;672;-91
2022/05/11 15:17:20;;;;;;;;;;;;;;;30.09;32.25;99585.44;5018967;28;984;-91
2022/05/11 15:19:46;;;;;;;;;;;;;;;29.91;31.02;99581.38;5002960;28;1480;-91
2022/05/11 15:22:11;;;;;;;;;;;;;;;28.90;33.92;99577.94;5002784;28;1890;-90
2022/05/11 15:24:36;;;;;;;;;;;;;;;28.74;35.04;99578.56;5000946;28;1272;-89
2022/05/11 15:27:02;;;;;;;;;;;;;;;29.61;32.89;99571.84;5001400;28;1292;-90
2022/05/11 15:29:27;;;;;;;;;;;;;;;29.40;34.53;99572.25;5000740;28;1166;-91
2022/05/11 15:31:52;;;;;;;;;;;;;;;29.60;35.51;99575.13;5001861;28;1227;-91
2022/05/11 15:34:19;;;;;;;;;;;;;;;29.39;33.27;99579.13;5018957;28;927;-91
2022/05/11 15:36:44;;;;;;;;;;;;;;;29.64;34.26;99576.63;5002011;28;1363;-91
2022/05/11 15:39:10;;;;;;;;;;;;;;;29.69;33.19;99583.78;5002037;28;1202;-90
2022/05/11 15:41:36;;;;;;;;;;;;;;;29.45;32.39;99576.59;5019804;28;1890;-91
2022/05/11 15:44:01;;;;;;;;;;;;;;;29.10;33.43;99570.34;5002720;28;1268;-90
2022/05/11 15:46:26;;;;;;;;;;;;;;;29.50;33.13;99587.41;5021751;28;904;-90
2022/05/11 15:48:51;;;;;;;;;;;;;;;29.79;32.33;99573.53;5022466;28;1055;-89
2022/05/11 15:51:18;;;;;;;;;;;;;;;29.93;31.62;99562.78;5022756;28;1213;-90
2022/05/11 15:53:45;;;;;;;;;;;;;;;30.15;32.83;99573.63;5002841;28;1224;-90
2022/05/11 15:56:10;;;;;;;;;;;;;;;29.97;33.06;99566.34;5000718;28;1356;-91
2022/05/11 15:58:36;;;;;;;;;;;;;;;29.63;33.69;99571.44;5018270;28;1055;-91
2022/05/11 16:01:04;;;;;;;;;;;;;;;29.46;34.15;99576.16;5000838;28;1898;-90
2022/05/11 16:03:29;;;;;;;;;;;;;;;29.54;34.43;99574.00;5019484;28;750;-91
2022/05/11 16:05:54;;;;;;;;;;;;;;;29.35;33.18;99562.25;5002678;28;1505;-91
2022/05/11 16:08:20;;;;;;;;;;;;;;;29.08;34.24;99567.16;5003401;28;1602;-88
2022/05/11 16:10:46;;;;;;;;;;;;;;;28.85;34.26;99559.47;5003727;28;1528;-90
2022/05/11 16:13:11;;;;;;;;;;;;;;;28.81;34.76;99549.50;5015903;28;1706;-89
2022/05/11 16:15:36;;;;;;;;;;;;;;;28.79;34.66;99557.56;4998433;28;1456;-90
2022/05/11 16:20:45;;;;;;;;;;;;;;;28.91;34.27;99566.25;5015956;28;1918;-88
2022/05/11 16:23:11;;;;;;;;;;;;;;;28.82;35.15;99545.47;5016066;28;1346;-90
2022/05/11 16:25:37;;;;;;;;;;;;;;;28.65;35.39;99543.69;5016166;28;896;-89
2022/05/11 16:28:03;;;;;;;;;;;;;;;28.53;34.74;99550.69;4998288;28;1236;-89
2022/05/11 16:30:28;;;;;;;;;;;;;;;28.67;36.54;99555.34;5015626;28;1320;-89
2022/05/11 16:32:53;;;;;;;;;;;;;;;29.00;34.53;99554.44;5015612;28;1286;-89
2022/05/11 16:35:19;;;;;;;;;;;;;;;28.88;33.53;99558.63;5015546;28;1274;-90
2022/05/11 16:37:44;;;;;;;;;;;;;;;28.75;34.65;99557.59;5015733;28;1012;-88
2022/05/11 16:40:10;;;;;;;;;;;;;;;28.57;33.95;99557.88;5015565;28;805;-90
2022/05/11 16:42:35;;;;;;;;;;;;;;;28.33;35.46;99553.38;5015578;28;1883;-90
2022/05/11 16:45:00;;;;;;;;;;;;;;;28.34;35.70;99559.81;4997549;28;1409;-89
2022/05/11 16:47:25;;;;;;;;;;;;;;;27.88;36.34;99555.59;5015178;28;1271;-90
2022/05/11 16:49:51;;;;;;;;;;;;;;;28.06;35.44;99547.72;5015245;28;1250;-89
2022/05/11 16:52:18;;;;;;;;;;;;;;;28.13;35.97;99556.06;4997436;28;1715;-89
2022/05/11 16:54:43;;;;;;;;;;;;;;;28.07;35.58;99560.53;4996523;28;1433;-89
2022/05/11 16:57:08;;;;;;;;;;;;;;;27.86;36.43;99558.00;4996482;28;1425;-89
2022/05/11 16:59:34;;;;;;;;;;;;;;;28.11;36.64;99560.50;4981345;28;1515;-91
2022/05/11 17:02:00;;;;;;;;;;;;;;;28.20;35.25;99552.38;5000211;28;1890;-90
2022/05/11 17:04:29;;;;;;;;;;;;;;;28.34;36.13;99559.81;5018092;28;1190;-90
2022/05/11 17:06:54;;;;;;;;;;;;;;;28.19;36.38;99554.41;5017639;28;1554;-90
2022/05/11 17:09:19;;;;;;;;;;;;;;;27.81;37.07;99561.31;5009639;28;1319;-89
2022/05/11 17:11:45;;;;;;;;;;;;;;;27.88;37.27;99558.41;4994575;28;1524;-90
2022/05/11 17:14:10;;;;;;;;;;;;;;;27.67;36.47;99558.63;5017320;28;1254;-89
2022/05/11 17:16:36;;;;;;;;;;;;;;;27.80;37.19;99560.50;5031476;28;1243;-90
2022/05/11 17:19:01;;;;;;;;;;;;;;;27.74;36.74;99562.16;4999236;28;1246;-88
2022/05/11 17:21:27;;;;;;;;;;;;;;;27.47;37.30;99559.22;5019393;28;2029;-89
2022/05/11 17:23:52;;;;;;;;;;;;;;;27.42;38.21;99570.91;4997213;28;1370;-90
2022/05/11 17:26:18;;;;;;;;;;;;;;;27.40;37.61;99556.47;4998594;28;1161;-89
2022/05/11 17:28:43;;;;;;;;;;;;;;;27.17;37.48;99572.34;5016536;28;1241;-88
2022/05/11 17:31:08;;;;;;;;;;;;;;;27.17;37.97;99570.34;5004967;28;1433;-90
2022/05/11 17:33:33;;;;;;;;;;;;;;;26.79;39.04;99568.66;5014042;28;1028;-89
2022/05/11 17:35:59;;;;;;;;;;;;;;;26.73;38.70;99568.25;4996916;28;1210;-90
2022/05/11 17:38:25;;;;;;;;;;;;;;;26.47;38.93;99566.84;5005059;28;1221;-90
2022/05/11 17:40:50;;;;;;;;;;;;;;;26.65;40.33;99569.53;5034007;28;1902;-89
2022/05/11 17:43:16;;;;;;;;;;;;;;;26.80;38.63;99570.22;5011673;28;1243;-87
2022/05/11 17:45:42;;;;;;;;;;;;;;;26.96;38.68;99576.97;4999269;28;1625;-89
2022/05/11 17:48:07;;;;;;;;;;;;;;;27.03;41.09;99582.53;5016426;28;1301;-89
2022/05/11 17:50:32;;;;;;;;;;;;;;;27.00;39.10;99579.72;4999146;28;1376;-89
2022/05/11 17:52:58;;;;;;;;;;;;;;;27.17;38.81;99575.16;4994403;28;1194;-87
2022/05/11 17:55:24;;;;;;;;;;;;;;;27.03;40.25;99576.91;5013675;28;1423;-90
2022/05/11 17:57:50;;;;;;;;;;;;;;;26.86;40.52;99582.63;4999277;28;1449;-90
2022/05/11 18:00:17;;;;;;;;;;;;;;;26.84;41.06;99579.44;5013557;28;1391;-90
2022/05/11 18:02:42;;;;;;;;;;;;;;;26.88;42.28;99585.81;5012928;28;1926;-88
2022/05/11 18:05:08;;;;;;;;;;;;;;;26.54;42.66;99594.84;4989611;28;1385;-88
2022/05/11 18:07:33;;;;;;;;;;;;;;;26.53;41.22;99592.47;5008019;28;1309;-88
2022/05/11 18:09:59;;;;;;;;;;;;;;;26.64;41.73;99590.38;5000406;28;1075;-88
2022/05/11 18:12:25;;;;;;;;;;;;;;;26.56;40.63;99588.84;4998483;28;1322;-89
2022/05/11 18:18:14;;;;;;;;;;;;;;;26.33;42.12;99580.97;4951395;29;1257;-88
2022/05/11 18:20:40;;;;;;;;;;;;;;;26.25;41.75;99577.34;4989364;28;1305;-88
2022/05/11 18:23:05;;;;;;;;;;;;;;;25.87;40.76;99584.72;4994263;28;1894;-87
2022/05/11 18:25:31;;;;;;;;;;;;;;;25.99;42.06;99587.09;5001132;28;1373;-87
2022/05/11 18:27:56;;;;;;;;;;;;;;;26.00;41.10;99594.31;5012807;28;1507;-88
2022/05/11 18:30:22;;;;;;;;;;;;;;;25.89;42.13;99598.34;4998630;28;1322;-88
2022/05/11 18:32:47;;;;;;;;;;;;;;;25.83;41.52;99600.78;5016777;28;1180;-87
2022/05/11 18:35:14;;;;;;;;;;;;;;;25.54;41.79;99593.59;5016946;28;854;-90
2022/05/11 18:37:39;;;;;;;;;;;;;;;25.68;41.57;99598.41;5000164;28;1317;-88
2022/05/11 18:40:05;;;;;;;;;;;;;;;25.81;41.10;99602.38;5015338;28;1381;-90
2022/05/11 18:42:30;;;;;;;;;;;;;;;25.79;42.01;99604.78;5014378;28;1886;-88
2022/05/11 18:44:58;;;;;;;;;;;;;;;25.54;42.32;99608.41;5001972;28;1382;-87
2022/05/11 18:47:23;;;;;;;;;;;;;;;25.42;43.59;99610.84;5019093;28;1343;-87
2022/05/11 18:49:48;;;;;;;;;;;;;;;25.46;43.30;99615.22;5019086;28;1364;-88
2022/05/11 18:52:13;;;;;;;;;;;;;;;25.15;45.60;99624.47;5015288;28;1372;-87
2022/05/11 18:54:39;;;;;;;;;;;;;;;25.01;44.20;99616.81;5016148;28;1442;-90
2022/05/11 18:57:04;;;;;;;;;;;;;;;24.94;44.73;99614.03;5016293;28;1549;-87
2022/05/11 18:59:29;;;;;;;;;;;;;;;24.95;45.23;99612.03;4998637;28;1409;-89
2022/05/11 19:01:55;;;;;;;;;;;;;;;24.89;45.62;99620.81;5015983;28;1906;-88
2022/05/11 19:04:20;;;;;;;;;;;;;;;24.69;46.52;99622.38;5015856;28;1136;-88
2022/05/11 19:06:45;;;;;;;;;;;;;;;24.58;47.10;99626.34;5030701;28;1184;-90
2022/05/11 19:09:11;;;;;;;;;;;;;;;24.52;47.71;99625.91;5036280;28;786;-88
2022/05/11 19:11:36;;;;;;;;;;;;;;;24.48;47.06;99634.31;5018410;28;1193;-86
2022/05/11 19:14:03;;;;;;;;;;;;;;;24.57;47.60;99638.75;5018515;28;912;-87
2022/05/11 19:16:28;;;;;;;;;;;;;;;24.47;49.67;99643.91;4999847;28;1321;-87
2022/05/11 19:18:53;;;;;;;;;;;;;;;24.28;48.56;99640.63;4984595;28;1373;-88
2022/05/11 19:21:19;;;;;;;;;;;;;;;24.17;48.44;99643.34;4998447;28;1969;-90
2022/05/11 19:23:44;;;;;;;;;;;;;;;24.19;48.73;99642.94;5015602;28;1229;-90
2022/05/11 19:26:09;;;;;;;;;;;;;;;24.13;49.27;99639.75;4998047;28;1625;-91
2022/05/11 19:28:36;;;;;;;;;;;;;;;23.74;50.02;99647.91;5015862;28;1489;-90
2022/05/11 19:31:06;;;;;;;;;;;;;;;23.79;49.46;99641.16;5019429;28;1265;-90
2022/05/11 19:33:32;;;;;;;;;;;;;;;23.92;49.92;99651.59;5019008;28;1364;-90
2022/05/11 19:36:02;;;;;;;;;;;;;;;23.78;49.53;99648.72;4997080;28;1287;-91
2022/05/11 19:38:27;;;;;;;;;;;;;;;23.62;50.44;99654.63;4998080;28;1338;-90
2022/05/11 19:40:53;;;;;;;;;;;;;;;23.66;50.40;99649.03;5015728;28;1965;-90
2022/05/11 19:43:18;;;;;;;;;;;;;;;23.58;49.11;99650.19;4996781;28;1305;-91
2022/05/11 19:45:44;;;;;;;;;;;;;;;23.56;50.72;99663.75;5019680;28;1462;-90
2022/05/11 19:48:09;;;;;;;;;;;;;;;23.54;50.37;99661.34;5011121;28;1629;-89
2022/05/11 19:50:34;;;;;;;;;;;;;;;23.59;50.79;99663.78;5000111;28;1455;-90
2022/05/11 19:53:00;;;;;;;;;;;;;;;23.60;49.71;99667.38;4995512;28;1371;-89
2022/05/11 19:55:26;;;;;;;;;;;;;;;23.61;48.94;99655.00;5019851;28;1131;-89
2022/05/11 19:58:01;;;;;;;;;;;;;;;23.32;51.12;99656.75;5017785;28;1087;-90
2022/05/11 20:00:26;;;;;;;;;;;;;;;23.24;50.68;99649.50;5015521;28;1352;-90
2022/05/11 20:02:51;;;;;;;;;;;;;;;23.48;50.07;99654.47;5015108;28;1973;-89
2022/05/11 20:05:16;;;;;;;;;;;;;;;23.33;52.08;99663.94;5003029;28;1409;-89
2022/05/11 20:07:42;;;;;;;;;;;;;;;23.08;52.24;99660.13;4978715;28;1147;-90
2022/05/11 20:10:08;;;;;;;;;;;;;;;22.82;51.24;99658.28;4997177;28;1547;-90
2022/05/11 20:12:33;;;;;;;;;;;;;;;22.88;51.07;99660.31;5014478;28;1192;-89
2022/05/11 20:14:58;;;;;;;;;;;;;;;22.95;50.72;99663.22;5020512;28;1147;-90
2022/05/11 20:17:24;;;;;;;;;;;;;;;23.07;50.03;99661.31;5034753;28;873;-90
2022/05/11 20:19:50;;;;;;;;;;;;;;;22.83;51.78;99659.88;5024756;28;1557;-89
2022/05/11 20:22:16;;;;;;;;;;;;;;;22.75;52.44;99661.81;5016665;28;1901;-89
2022/05/11 20:24:41;;;;;;;;;;;;;;;22.76;51.66;99654.22;4989972;28;1392;-89
2022/05/11 20:27:08;;;;;;;;;;;;;;;22.15;53.03;99666.63;5006690;28;1151;-89
2022/05/11 20:29:33;;;;;;;;;;;;;;;21.91;55.17;99673.44;5014597;28;1430;-89
2022/05/11 20:37:26;;;;;;;;;;;;;;;21.61;53.64;99667.81;5014866;28;670;-89
2022/05/11 20:39:51;;;;;;;;;;;;;;;21.90;53.16;99675.44;4996716;28;1241;-89
2022/05/11 20:42:17;;;;;;;;;;;;;;;21.96;53.35;99672.31;5011760;28;1898;-89
2022/05/11 20:44:42;;;;;;;;;;;;;;;21.94;52.96;99675.50;5014546;28;786;-89
